createdAt,value
2018-12-27T00:19:32.819Z,-2.50
2018-12-27T00:55:08.142Z,-2.30
2018-12-27T02:09:07.492Z,-2.50
2018-12-27T02:26:48.018Z,-2.30
2018-12-27T02:29:41.121Z,-2.40
2018-12-27T02:35:12.968Z,-2.40
2018-12-27T03:45:36.584Z,-2.60
2018-12-27T03:54:42.752Z,-2.80
2018-12-27T03:57:29.769Z,-2.70
2018-12-27T04:04:01.282Z,-3.00
2018-12-27T04:13:36.732Z,-3.00
2018-12-27T04:19:47.111Z,-3.10
2018-12-27T04:34:52.164Z,-3.20
2018-12-27T04:43:38.983Z,-3.50
2018-12-27T04:55:16.868Z,-3.30
2018-12-27T04:58:09.761Z,-3.30
2018-12-27T05:36:20.604Z,-1.90
2018-12-27T05:38:48.228Z,-2.20
2018-12-27T05:41:15.855Z,-2.40
2018-12-27T05:43:43.476Z,-2.60
2018-12-27T05:46:11.105Z,-2.70
2018-12-27T05:48:38.729Z,-2.80
2018-12-27T05:51:06.379Z,-2.80
2018-12-27T05:53:34.009Z,-2.80
2018-12-27T05:56:01.631Z,-2.80
2018-12-27T05:58:29.287Z,-2.70
2018-12-27T06:00:56.888Z,-2.60
2018-12-27T06:03:24.525Z,-2.50
2018-12-27T06:05:52.150Z,-2.40
2018-12-27T06:08:19.774Z,-2.40
2018-12-27T06:10:47.432Z,-2.30
2018-12-27T06:13:15.070Z,-2.30
2018-12-27T06:15:42.698Z,-2.30
2018-12-27T06:18:10.312Z,-2.20
2018-12-27T06:20:37.938Z,-2.20
2018-12-27T06:23:05.551Z,-2.20
2018-12-27T06:25:33.188Z,-2.30
2018-12-27T06:28:00.835Z,-2.40
2018-12-27T06:30:28.457Z,-2.50
2018-12-27T06:32:56.091Z,-2.50
2018-12-27T06:35:23.732Z,-2.60
2018-12-27T06:37:51.375Z,-2.60
2018-12-27T06:40:19.017Z,-2.70
2018-12-27T06:42:46.629Z,-2.70
2018-12-27T06:45:14.275Z,-2.70
2018-12-27T06:47:41.895Z,-2.60
2018-12-27T06:50:09.520Z,-2.60
2018-12-27T06:52:37.137Z,-2.70
2018-12-27T06:55:04.774Z,-2.70
2018-12-27T06:57:32.392Z,-2.80
2018-12-27T07:00:00.040Z,-2.80
2018-12-27T07:02:27.751Z,-2.70
2018-12-27T07:04:55.358Z,-2.60
2018-12-27T07:07:23.007Z,-2.50
2018-12-27T07:09:50.637Z,-2.60
2018-12-27T07:12:18.253Z,-2.60
2018-12-27T07:14:45.883Z,-2.60
2018-12-27T07:17:13.521Z,-2.70
2018-12-27T07:19:41.145Z,-2.80
2018-12-27T07:22:08.768Z,-2.80
2018-12-27T07:24:36.399Z,-2.90
2018-12-27T07:27:04.008Z,-2.90
2018-12-27T07:29:31.658Z,-2.90
2018-12-27T07:31:59.268Z,-2.90
2018-12-27T07:34:26.913Z,-2.90
2018-12-27T07:36:54.544Z,-2.80
2018-12-27T07:39:22.180Z,-2.80
2018-12-27T07:41:49.813Z,-2.70
2018-12-27T07:44:17.428Z,-2.70
2018-12-27T07:46:45.063Z,-2.70
2018-12-27T07:49:12.676Z,-2.60
2018-12-27T07:51:40.329Z,-2.50
2018-12-27T07:54:07.941Z,-2.40
2018-12-27T07:56:35.561Z,-2.30
2018-12-27T07:59:03.204Z,-2.30
2018-12-27T08:01:30.816Z,-2.20
2018-12-27T08:03:58.450Z,-2.20
2018-12-27T08:06:26.305Z,-2.10
2018-12-27T08:08:53.922Z,-2.10
2018-12-27T08:11:21.602Z,-2.00
2018-12-27T08:13:49.803Z,-1.80
2018-12-27T08:16:17.435Z,-1.80
2018-12-27T08:18:45.079Z,-1.80
2018-12-27T08:21:12.697Z,-1.60
2018-12-27T08:23:40.325Z,-1.50
2018-12-27T08:26:07.949Z,-1.40
2018-12-27T08:28:35.573Z,-1.30
2018-12-27T08:31:03.185Z,-1.20
2018-12-27T08:33:30.793Z,-1.20
2018-12-27T08:35:58.408Z,-1.20
2018-12-27T08:38:26.058Z,-1.00
2018-12-27T08:40:53.675Z,-1.00
2018-12-27T08:43:21.309Z,-1.00
2018-12-27T08:45:48.928Z,-0.90
2018-12-27T08:48:16.549Z,-0.90
2018-12-27T08:50:44.164Z,-0.90
2018-12-27T08:53:11.787Z,-0.90
2018-12-27T08:55:39.388Z,-0.80
2018-12-27T08:58:07.013Z,-0.70
2018-12-27T09:00:34.643Z,-0.70
2018-12-27T09:03:02.258Z,-0.60
2018-12-27T09:05:29.873Z,-0.50
2018-12-27T09:07:57.513Z,-0.40
2018-12-27T09:10:25.129Z,-0.30
2018-12-27T09:12:52.746Z,-0.20
2018-12-27T09:15:20.379Z,-0.20
2018-12-27T09:17:48.014Z,-0.20
2018-12-27T09:20:15.627Z,-0.10
2018-12-27T09:22:43.313Z,-0.20
2018-12-27T09:25:10.896Z,-0.20
2018-12-27T09:27:38.508Z,-0.20
2018-12-27T09:30:06.788Z,-0.10
2018-12-27T09:32:34.413Z,-0.10
2018-12-27T09:35:02.021Z,0.00
2018-12-27T09:37:29.636Z,0.00
2018-12-27T09:39:57.263Z,0.10
2018-12-27T09:42:24.893Z,0.20
2018-12-27T09:44:52.509Z,0.20
2018-12-27T09:47:20.127Z,0.30
2018-12-27T09:49:47.755Z,0.40
2018-12-27T09:52:15.365Z,0.40
2018-12-27T09:54:42.995Z,0.40
2018-12-27T09:57:10.604Z,0.50
2018-12-27T09:59:38.471Z,0.50
2018-12-27T10:02:06.093Z,0.50
2018-12-27T10:04:33.708Z,0.70
2018-12-27T10:07:01.316Z,0.70
2018-12-27T10:09:28.955Z,0.70
2018-12-27T10:11:56.715Z,0.80
2018-12-27T10:14:24.347Z,0.90
2018-12-27T10:16:51.953Z,0.90
2018-12-27T10:19:19.565Z,0.80
2018-12-27T10:21:47.178Z,0.80
2018-12-27T10:24:14.807Z,0.80
2018-12-27T10:26:42.430Z,0.80
2018-12-27T10:29:10.055Z,0.80
2018-12-27T10:31:37.675Z,0.90
2018-12-27T10:34:05.288Z,0.90
2018-12-27T10:36:32.908Z,1.00
2018-12-27T10:39:00.527Z,1.10
2018-12-27T10:41:28.187Z,1.00
2018-12-27T10:43:55.819Z,1.00
2018-12-27T10:46:23.430Z,1.00
2018-12-27T10:48:51.041Z,1.10
2018-12-27T10:51:18.652Z,1.20
2018-12-27T10:53:46.278Z,1.30
2018-12-27T10:56:13.901Z,1.50
2018-12-27T10:58:41.521Z,1.40
2018-12-27T11:01:09.124Z,1.50
2018-12-27T11:03:36.765Z,1.60
2018-12-27T11:06:04.391Z,1.80
2018-12-27T11:08:31.993Z,2.00
2018-12-27T11:10:59.855Z,2.10
2018-12-27T11:13:27.780Z,2.20
2018-12-27T11:15:55.457Z,2.30
2018-12-27T11:18:23.074Z,2.60
2018-12-27T11:20:50.693Z,2.70
2018-12-27T11:23:19.101Z,2.80
2018-12-27T11:25:46.718Z,2.80
2018-12-27T11:28:14.335Z,3.10
2018-12-27T11:30:41.965Z,3.50
2018-12-27T11:33:09.693Z,3.90
2018-12-27T11:35:37.315Z,3.50
2018-12-27T11:38:04.941Z,3.90
2018-12-27T11:40:32.580Z,4.40
2018-12-27T11:43:00.181Z,4.30
2018-12-27T11:45:27.863Z,3.70
2018-12-27T11:47:55.481Z,3.20
2018-12-27T11:50:23.097Z,3.10
2018-12-27T11:52:50.709Z,3.00
2018-12-27T11:55:18.315Z,2.90
2018-12-27T11:57:45.924Z,2.60
2018-12-27T12:00:13.561Z,2.60
2018-12-27T12:02:41.173Z,2.70
2018-12-27T12:05:08.784Z,2.90
2018-12-27T12:07:36.399Z,3.00
2018-12-27T12:10:04.897Z,3.00
2018-12-27T12:12:32.504Z,3.30
2018-12-27T12:15:00.165Z,3.20
2018-12-27T12:17:27.832Z,2.90
2018-12-27T12:19:55.463Z,3.10
2018-12-27T12:22:23.084Z,3.40
2018-12-27T12:24:50.697Z,3.60
2018-12-27T12:27:18.323Z,3.60
2018-12-27T12:29:45.930Z,3.80
2018-12-27T12:32:13.555Z,3.90
2018-12-27T12:34:41.175Z,4.00
2018-12-27T12:37:13.991Z,3.60
2018-12-27T12:39:38.209Z,3.50
2018-12-27T12:42:05.809Z,3.90
2018-12-27T12:44:33.427Z,4.50
2018-12-27T12:47:01.118Z,5.50
2018-12-27T12:49:28.751Z,6.20
2018-12-27T12:51:56.375Z,6.10
2018-12-27T12:54:23.998Z,6.30
2018-12-27T12:56:51.608Z,6.70
2018-12-27T12:59:19.223Z,6.80
2018-12-27T13:01:46.867Z,7.10
2018-12-27T13:04:14.509Z,7.20
2018-12-27T13:06:42.105Z,7.40
2018-12-27T13:09:09.713Z,7.40
2018-12-27T13:11:37.333Z,7.40
2018-12-27T13:14:04.945Z,7.50
2018-12-27T13:16:32.557Z,7.30
2018-12-27T13:19:00.179Z,7.00
2018-12-27T13:21:27.797Z,6.90
2018-12-27T13:23:55.416Z,6.20
2018-12-27T13:26:23.033Z,5.40
2018-12-27T13:28:50.644Z,4.90
2018-12-27T13:31:18.258Z,4.30
2018-12-27T13:33:45.869Z,3.80
2018-12-27T13:36:13.485Z,3.70
2018-12-27T13:38:41.098Z,3.60
2018-12-27T13:41:08.712Z,3.60
2018-12-27T13:43:36.344Z,3.40
2018-12-27T13:46:03.958Z,3.00
2018-12-27T13:48:31.565Z,3.00
2018-12-27T13:50:59.193Z,2.90
2018-12-27T13:53:26.790Z,2.80
2018-12-27T13:55:54.404Z,2.70
2018-12-27T13:58:22.018Z,2.70
2018-12-27T14:00:49.641Z,2.60
2018-12-27T14:03:17.244Z,2.60
2018-12-27T14:05:44.852Z,2.70
2018-12-27T14:08:12.464Z,2.70
2018-12-27T14:10:40.098Z,2.70
2018-12-27T14:13:07.716Z,2.60
2018-12-27T14:15:35.352Z,2.50
2018-12-27T14:18:02.967Z,2.40
2018-12-27T14:20:30.572Z,2.20
2018-12-27T14:22:58.194Z,2.00
2018-12-27T14:25:25.813Z,1.90
2018-12-27T14:27:53.446Z,1.90
2018-12-27T14:30:21.046Z,1.80
2018-12-27T14:32:48.683Z,1.70
2018-12-27T14:35:16.307Z,1.60
2018-12-27T14:37:43.920Z,1.50
2018-12-27T14:40:11.527Z,1.40
2018-12-27T14:42:39.148Z,1.30
2018-12-27T14:45:06.770Z,1.30
2018-12-27T14:47:34.387Z,1.30
2018-12-27T14:50:02.005Z,1.10
2018-12-27T14:52:29.636Z,1.00
2018-12-27T14:54:57.259Z,0.90
2018-12-27T14:57:24.881Z,0.90
2018-12-27T14:59:52.489Z,0.80
2018-12-27T15:02:20.108Z,0.70
2018-12-27T15:04:47.709Z,0.70
2018-12-27T15:07:15.347Z,0.50
2018-12-27T15:09:42.992Z,0.40
2018-12-27T15:12:10.613Z,0.30
2018-12-27T15:14:38.239Z,0.20
2018-12-27T15:17:05.911Z,0.00
2018-12-27T15:19:33.553Z,-0.10
2018-12-27T15:22:01.168Z,-0.20
2018-12-27T15:24:28.780Z,-0.30
2018-12-27T15:26:56.407Z,-0.40
2018-12-27T15:29:24.042Z,-0.40
2018-12-27T15:31:51.681Z,-0.50
2018-12-27T15:34:19.304Z,-0.60
2018-12-27T15:36:46.917Z,-0.60
2018-12-27T15:39:14.563Z,-0.70
2018-12-27T15:41:42.185Z,-0.70
2018-12-27T15:44:09.825Z,-0.70
2018-12-27T15:46:37.446Z,-0.70
2018-12-27T15:49:05.069Z,-0.70
2018-12-27T15:51:32.700Z,-0.80
2018-12-27T15:54:00.315Z,-0.90
2018-12-27T15:56:27.934Z,-0.90
2018-12-27T15:58:55.584Z,-0.90
2018-12-27T16:01:23.215Z,-0.90
2018-12-27T16:03:50.853Z,-0.90
2018-12-27T16:06:18.713Z,-0.80
2018-12-27T16:08:46.341Z,-0.70
2018-12-27T16:11:13.979Z,-0.70
2018-12-27T16:13:41.617Z,-0.70
2018-12-27T16:16:09.245Z,-0.80
2018-12-27T16:18:36.882Z,-0.90
2018-12-27T16:21:04.568Z,-0.90
2018-12-27T16:23:32.193Z,-0.90
2018-12-27T16:25:59.804Z,-0.90
2018-12-27T16:28:27.447Z,-1.00
2018-12-27T16:30:55.069Z,-1.00
2018-12-27T16:33:22.684Z,-1.10
2018-12-27T16:35:50.309Z,-1.10
2018-12-27T16:38:17.936Z,-1.00
2018-12-27T16:40:45.545Z,-1.10
2018-12-27T16:43:13.186Z,-1.20
2018-12-27T16:45:40.808Z,-1.00
2018-12-27T16:48:08.423Z,-1.10
2018-12-27T16:50:36.041Z,-1.20
2018-12-27T16:53:03.667Z,-1.30
2018-12-27T16:55:31.288Z,-1.30
2018-12-27T16:57:58.906Z,-1.30
2018-12-27T17:00:26.534Z,-1.20
2018-12-27T17:02:54.167Z,-1.10
2018-12-27T17:05:21.773Z,-1.10
2018-12-27T17:07:49.395Z,-1.20
2018-12-27T17:10:17.028Z,-1.10
2018-12-27T17:12:44.641Z,-1.10
2018-12-27T17:15:12.300Z,-1.20
2018-12-27T17:17:39.917Z,-1.20
2018-12-27T17:20:07.548Z,-1.30
2018-12-27T17:22:35.165Z,-1.40
2018-12-27T17:25:02.787Z,-1.50
2018-12-27T17:27:32.033Z,-1.40
2018-12-27T17:29:59.670Z,-1.40
2018-12-27T17:32:27.288Z,-1.40
2018-12-27T17:34:54.924Z,-1.40
2018-12-27T17:37:23.419Z,-1.40
2018-12-27T17:39:51.136Z,-1.40
2018-12-27T17:42:18.777Z,-1.40
2018-12-27T17:44:46.414Z,-1.40
2018-12-27T17:47:14.005Z,-1.40
2018-12-27T17:49:41.622Z,-1.30
2018-12-27T17:52:09.236Z,-1.30
2018-12-27T17:54:36.864Z,-1.40
2018-12-27T17:57:04.482Z,-1.50
2018-12-27T17:59:32.120Z,-1.50
2018-12-27T18:01:59.721Z,-1.60
2018-12-27T18:04:27.371Z,-1.60
2018-12-27T18:06:54.987Z,-1.60
2018-12-27T18:09:22.623Z,-1.70
2018-12-27T18:11:50.237Z,-1.70
2018-12-27T18:14:17.882Z,-1.80
2018-12-27T18:16:45.489Z,-1.80
2018-12-27T18:19:13.135Z,-1.70
2018-12-27T18:21:40.740Z,-1.80
2018-12-27T18:24:08.363Z,-1.80
2018-12-27T18:26:36.068Z,-1.90
2018-12-27T18:29:03.713Z,-1.90
2018-12-27T18:31:31.354Z,-1.90
2018-12-27T18:33:58.977Z,-1.90
2018-12-27T18:36:26.848Z,-1.90
2018-12-27T18:38:54.461Z,-2.00
2018-12-27T18:41:22.084Z,-2.00
2018-12-27T18:43:49.770Z,-2.00
2018-12-27T18:46:17.419Z,-2.10
2018-12-27T18:48:45.038Z,-2.10
2018-12-27T18:51:12.656Z,-2.10
2018-12-27T18:53:40.283Z,-2.00
2018-12-27T18:56:07.919Z,-1.90
2018-12-27T18:58:35.524Z,-1.90
2018-12-27T19:01:03.158Z,-1.90
2018-12-27T19:03:30.780Z,-1.80
2018-12-27T19:05:58.394Z,-1.70
2018-12-27T19:08:26.008Z,-1.60
2018-12-27T19:11:11.484Z,-1.60
2018-12-27T19:13:39.113Z,-1.60
2018-12-27T19:16:06.729Z,-1.60
2018-12-27T19:18:34.399Z,-1.60
2018-12-27T19:21:02.025Z,-1.60
2018-12-27T19:23:29.655Z,-1.60
2018-12-27T19:25:57.295Z,-1.70
2018-12-27T19:28:24.904Z,-1.60
2018-12-27T19:30:52.545Z,-1.60
2018-12-27T19:33:20.161Z,-1.60
2018-12-27T19:35:47.812Z,-1.50
2018-12-27T19:38:15.435Z,-1.60
2018-12-27T19:40:43.079Z,-1.60
2018-12-27T19:43:10.700Z,-1.60
2018-12-27T19:45:38.309Z,-1.50
2018-12-27T19:48:05.940Z,-1.50
2018-12-27T19:50:33.588Z,-1.50
2018-12-27T19:53:01.201Z,-1.50
2018-12-27T19:55:28.821Z,-1.40
2018-12-27T19:57:56.455Z,-1.30
2018-12-27T20:00:24.088Z,-1.30
2018-12-27T20:02:51.704Z,-1.30
2018-12-27T20:05:19.313Z,-1.40
2018-12-27T20:07:46.949Z,-1.40
2018-12-27T20:10:14.577Z,-1.40
2018-12-27T20:12:42.199Z,-1.40
2018-12-27T20:15:09.809Z,-1.30
2018-12-27T20:17:37.436Z,-1.30
2018-12-27T20:20:05.825Z,-1.30
2018-12-27T20:22:33.459Z,-1.40
2018-12-27T20:25:01.083Z,-1.40
2018-12-27T20:27:28.700Z,-1.50
2018-12-27T20:29:56.313Z,-1.40
2018-12-27T20:32:23.946Z,-1.40
2018-12-27T20:34:51.572Z,-1.30
2018-12-27T20:37:19.211Z,-1.30
2018-12-27T20:39:46.836Z,-1.30
2018-12-27T20:42:14.503Z,-1.20
2018-12-27T20:44:42.111Z,-1.20
2018-12-27T20:47:09.730Z,-1.20
2018-12-27T20:49:37.342Z,-1.10
2018-12-27T20:52:04.977Z,-1.30
2018-12-27T20:54:32.592Z,-1.20
2018-12-27T20:57:00.254Z,-1.20
2018-12-27T20:59:27.909Z,-1.20
2018-12-27T21:01:55.718Z,-1.20
2018-12-27T21:04:23.352Z,-0.90
2018-12-27T21:06:50.960Z,-1.00
2018-12-27T21:09:18.579Z,-0.90
2018-12-27T21:11:46.212Z,-0.90
2018-12-27T21:14:13.829Z,-1.10
2018-12-27T21:16:41.474Z,-1.00
2018-12-27T21:19:09.183Z,-0.90
2018-12-27T21:21:36.873Z,-1.10
2018-12-27T21:24:07.218Z,-1.30
2018-12-27T21:26:34.834Z,-1.30
2018-12-27T21:29:02.441Z,-1.40
2018-12-27T21:31:30.105Z,-1.40
2018-12-27T21:33:57.723Z,-1.50
2018-12-27T21:36:25.341Z,-1.50
2018-12-27T21:38:52.961Z,-1.50
2018-12-27T21:41:20.622Z,-1.50
2018-12-27T21:43:48.272Z,-1.50
2018-12-27T21:46:15.903Z,-1.70
2018-12-27T21:48:43.548Z,-1.80
2018-12-27T21:51:11.170Z,-1.90
2018-12-27T21:53:38.794Z,-2.00
2018-12-27T21:56:06.415Z,-1.90
2018-12-27T21:58:34.055Z,-1.90
2018-12-27T22:01:01.665Z,-1.90
2018-12-27T22:03:29.299Z,-2.00
2018-12-27T22:05:56.920Z,-1.90
2018-12-27T22:08:28.461Z,-1.90
2018-12-27T22:10:53.896Z,-2.00
2018-12-27T22:13:21.768Z,-2.10
2018-12-27T22:15:49.439Z,-1.90
2018-12-27T22:18:17.048Z,-1.80
2018-12-27T22:20:44.687Z,-1.80
2018-12-27T22:23:12.305Z,-1.80
2018-12-27T22:25:40.009Z,-2.00
2018-12-27T22:28:07.632Z,-2.20
2018-12-27T22:30:35.248Z,-2.30
2018-12-27T22:33:02.861Z,-2.40
2018-12-27T22:35:30.493Z,-2.40
2018-12-27T22:37:58.281Z,-2.50
2018-12-27T22:40:25.960Z,-2.50
2018-12-27T22:42:53.577Z,-2.50
2018-12-27T22:45:21.444Z,-2.40
2018-12-27T22:47:49.224Z,-2.30
2018-12-27T22:50:17.121Z,-2.30
2018-12-27T22:52:44.780Z,-2.30
2018-12-27T22:55:12.416Z,-2.40
2018-12-27T22:57:40.026Z,-2.30
2018-12-27T23:00:09.185Z,-2.20
2018-12-27T23:02:37.045Z,-2.20
2018-12-27T23:05:04.729Z,-2.30
2018-12-27T23:07:32.355Z,-2.40
2018-12-27T23:09:59.999Z,-2.40
2018-12-27T23:12:27.651Z,-2.30
2018-12-27T23:14:55.325Z,-2.20
2018-12-27T23:17:22.963Z,-2.10
2018-12-27T23:19:50.581Z,-2.00
2018-12-27T23:22:18.209Z,-2.00
2018-12-27T23:24:45.824Z,-2.10
2018-12-27T23:27:13.444Z,-2.10
2018-12-27T23:29:41.167Z,-2.00
2018-12-27T23:32:08.802Z,-2.00
2018-12-27T23:34:36.431Z,-2.10
2018-12-27T23:37:04.030Z,-2.00
2018-12-27T23:39:31.644Z,-2.00
2018-12-27T23:41:59.285Z,-2.00
2018-12-27T23:44:26.920Z,-2.00
2018-12-27T23:46:54.530Z,-2.00
2018-12-27T23:49:22.149Z,-2.10
2018-12-27T23:51:49.945Z,-2.00
2018-12-27T23:54:17.689Z,-2.00
2018-12-27T23:56:45.368Z,-1.80
2018-12-27T23:59:12.995Z,-1.90
